sensor_id;sensor_type;location;lat;lon;timestamp;temperature;humidity
9118;DHT22;4594;50.994;7.126;2022-08-03T00:00:47;22.50;34.90
9118;DHT22;4594;50.994;7.126;2022-08-03T00:03:12;22.50;35.00
9118;DHT22;4594;50.994;7.126;2022-08-03T00:05:38;22.50;35.00
9118;DHT22;4594;50.994;7.126;2022-08-03T00:08:04;22.40;35.00
9118;DHT22;4594;50.994;7.126;2022-08-03T00:10:30;22.40;35.10
9118;DHT22;4594;50.994;7.126;2022-08-03T00:12:56;22.40;35.10
9118;DHT22;4594;50.994;7.126;2022-08-03T00:15:21;22.30;35.00
9118;DHT22;4594;50.994;7.126;2022-08-03T00:17:47;22.30;35.10
9118;DHT22;4594;50.994;7.126;2022-08-03T00:20:13;22.30;35.20
9118;DHT22;4594;50.994;7.126;2022-08-03T00:22:38;22.30;35.20
9118;DHT22;4594;50.994;7.126;2022-08-03T00:25:05;22.20;35.20
9118;DHT22;4594;50.994;7.126;2022-08-03T00:27:31;22.20;35.30
9118;DHT22;4594;50.994;7.126;2022-08-03T00:29:56;22.10;35.30
9118;DHT22;4594;50.994;7.126;2022-08-03T00:32:22;22.10;35.30
9118;DHT22;4594;50.994;7.126;2022-08-03T00:34:48;22.10;35.30
9118;DHT22;4594;50.994;7.126;2022-08-03T00:37:13;22.00;35.30
9118;DHT22;4594;50.994;7.126;2022-08-03T00:39:39;22.00;35.40
9118;DHT22;4594;50.994;7.126;2022-08-03T00:42:07;21.90;35.30
9118;DHT22;4594;50.994;7.126;2022-08-03T00:44:41;21.90;35.40
9118;DHT22;4594;50.994;7.126;2022-08-03T00:47:09;21.90;35.60
9118;DHT22;4594;50.994;7.126;2022-08-03T00:49:38;21.90;35.40
9118;DHT22;4594;50.994;7.126;2022-08-03T00:52:06;21.90;35.50
9118;DHT22;4594;50.994;7.126;2022-08-03T00:54:38;21.80;35.50
9118;DHT22;4594;50.994;7.126;2022-08-03T00:57:05;21.80;35.70
9118;DHT22;4594;50.994;7.126;2022-08-03T00:59:31;21.80;35.60
9118;DHT22;4594;50.994;7.126;2022-08-03T01:01:56;21.80;35.60
9118;DHT22;4594;50.994;7.126;2022-08-03T01:04:22;21.70;35.60
9118;DHT22;4594;50.994;7.126;2022-08-03T01:06:54;21.70;35.70
9118;DHT22;4594;50.994;7.126;2022-08-03T01:09:45;21.70;35.90
9118;DHT22;4594;50.994;7.126;2022-08-03T01:12:34;21.70;36.10
9118;DHT22;4594;50.994;7.126;2022-08-03T01:15:23;21.60;36.00
9118;DHT22;4594;50.994;7.126;2022-08-03T01:17:55;21.60;36.10
9118;DHT22;4594;50.994;7.126;2022-08-03T01:20:28;21.60;35.90
9118;DHT22;4594;50.994;7.126;2022-08-03T01:23:36;21.50;36.10
9118;DHT22;4594;50.994;7.126;2022-08-03T01:32:20;21.40;36.20
9118;DHT22;4594;50.994;7.126;2022-08-03T01:35:09;21.40;36.00
9118;DHT22;4594;50.994;7.126;2022-08-03T01:37:52;21.40;36.30
9118;DHT22;4594;50.994;7.126;2022-08-03T01:40:24;21.30;36.10
9118;DHT22;4594;50.994;7.126;2022-08-03T01:42:54;21.30;36.20
9118;DHT22;4594;50.994;7.126;2022-08-03T01:45:24;21.30;36.30
9118;DHT22;4594;50.994;7.126;2022-08-03T01:47:52;21.30;36.30
9118;DHT22;4594;50.994;7.126;2022-08-03T01:50:22;21.30;36.30
9118;DHT22;4594;50.994;7.126;2022-08-03T01:52:51;21.20;36.50
9118;DHT22;4594;50.994;7.126;2022-08-03T01:55:19;21.20;36.40
9118;DHT22;4594;50.994;7.126;2022-08-03T01:57:47;21.20;36.50
9118;DHT22;4594;50.994;7.126;2022-08-03T02:00:15;21.20;36.60
9118;DHT22;4594;50.994;7.126;2022-08-03T02:02:45;21.20;36.60
9118;DHT22;4594;50.994;7.126;2022-08-03T02:05:15;21.10;36.50
9118;DHT22;4594;50.994;7.126;2022-08-03T02:07:44;21.10;36.60
9118;DHT22;4594;50.994;7.126;2022-08-03T02:10:13;21.10;36.60
9118;DHT22;4594;50.994;7.126;2022-08-03T02:12:43;21.10;36.70
9118;DHT22;4594;50.994;7.126;2022-08-03T02:15:11;21.10;36.80
9118;DHT22;4594;50.994;7.126;2022-08-03T02:17:40;21.10;36.80
9118;DHT22;4594;50.994;7.126;2022-08-03T02:20:10;21.10;36.90
9118;DHT22;4594;50.994;7.126;2022-08-03T02:22:39;21.00;37.00
9118;DHT22;4594;50.994;7.126;2022-08-03T02:25:12;21.00;36.80
9118;DHT22;4594;50.994;7.126;2022-08-03T02:27:44;21.00;37.10
9118;DHT22;4594;50.994;7.126;2022-08-03T02:30:17;21.00;37.00
9118;DHT22;4594;50.994;7.126;2022-08-03T02:32:49;21.00;36.90
9118;DHT22;4594;50.994;7.126;2022-08-03T02:35:20;21.00;37.10
9118;DHT22;4594;50.994;7.126;2022-08-03T02:37:50;21.00;37.10
9118;DHT22;4594;50.994;7.126;2022-08-03T02:40:20;20.90;36.90
9118;DHT22;4594;50.994;7.126;2022-08-03T02:42:50;20.90;37.00
9118;DHT22;4594;50.994;7.126;2022-08-03T02:45:19;20.90;37.20
9118;DHT22;4594;50.994;7.126;2022-08-03T02:47:48;20.90;37.10
9118;DHT22;4594;50.994;7.126;2022-08-03T02:50:17;20.90;37.20
9118;DHT22;4594;50.994;7.126;2022-08-03T02:52:46;20.90;37.20
9118;DHT22;4594;50.994;7.126;2022-08-03T02:55:14;20.90;37.30
9118;DHT22;4594;50.994;7.126;2022-08-03T02:57:43;20.80;37.20
9118;DHT22;4594;50.994;7.126;2022-08-03T03:00:11;20.80;37.30
9118;DHT22;4594;50.994;7.126;2022-08-03T03:02:39;20.80;37.40
9118;DHT22;4594;50.994;7.126;2022-08-03T03:05:07;20.90;37.50
9118;DHT22;4594;50.994;7.126;2022-08-03T03:07:36;20.80;37.40
9118;DHT22;4594;50.994;7.126;2022-08-03T03:10:03;20.80;37.50
9118;DHT22;4594;50.994;7.126;2022-08-03T03:12:30;20.80;37.50
9118;DHT22;4594;50.994;7.126;2022-08-03T03:14:57;20.80;37.50
9118;DHT22;4594;50.994;7.126;2022-08-03T03:17:24;20.80;37.50
9118;DHT22;4594;50.994;7.126;2022-08-03T03:19:51;20.80;37.60
9118;DHT22;4594;50.994;7.126;2022-08-03T03:22:18;20.80;37.60
9118;DHT22;4594;50.994;7.126;2022-08-03T03:24:45;20.70;37.60
9118;DHT22;4594;50.994;7.126;2022-08-03T03:27:13;20.70;37.60
9118;DHT22;4594;50.994;7.126;2022-08-03T03:29:40;20.70;37.60
9118;DHT22;4594;50.994;7.126;2022-08-03T03:32:06;20.80;37.70
9118;DHT22;4594;50.994;7.126;2022-08-03T03:34:32;20.80;37.80
9118;DHT22;4594;50.994;7.126;2022-08-03T03:36:58;20.70;37.70
9118;DHT22;4594;50.994;7.126;2022-08-03T03:39:24;20.80;37.80
9118;DHT22;4594;50.994;7.126;2022-08-03T03:41:50;20.70;37.70
9118;DHT22;4594;50.994;7.126;2022-08-03T03:44:16;20.80;37.90
9118;DHT22;4594;50.994;7.126;2022-08-03T03:46:41;20.80;37.90
9118;DHT22;4594;50.994;7.126;2022-08-03T03:49:07;20.80;37.90
9118;DHT22;4594;50.994;7.126;2022-08-03T03:51:33;20.80;37.90
9118;DHT22;4594;50.994;7.126;2022-08-03T03:54:01;20.80;37.90
9118;DHT22;4594;50.994;7.126;2022-08-03T03:56:28;20.80;37.90
9118;DHT22;4594;50.994;7.126;2022-08-03T03:58:54;20.80;38.00
9118;DHT22;4594;50.994;7.126;2022-08-03T04:01:21;20.80;38.00
9118;DHT22;4594;50.994;7.126;2022-08-03T04:03:47;20.80;38.00
9118;DHT22;4594;50.994;7.126;2022-08-03T04:06:13;20.80;38.00
9118;DHT22;4594;50.994;7.126;2022-08-03T04:08:59;20.80;38.00
9118;DHT22;4594;50.994;7.126;2022-08-03T04:11:50;20.80;38.00
9118;DHT22;4594;50.994;7.126;2022-08-03T04:14:21;20.80;38.10
9118;DHT22;4594;50.994;7.126;2022-08-03T04:17:04;20.70;38.00
9118;DHT22;4594;50.994;7.126;2022-08-03T04:19:37;20.80;38.20
9118;DHT22;4594;50.994;7.126;2022-08-03T04:22:18;20.80;38.20
9118;DHT22;4594;50.994;7.126;2022-08-03T04:24:55;20.70;38.10
9118;DHT22;4594;50.994;7.126;2022-08-03T04:27:29;20.70;38.30
9118;DHT22;4594;50.994;7.126;2022-08-03T04:30:05;20.80;38.30
9118;DHT22;4594;50.994;7.126;2022-08-03T04:32:33;20.70;38.30
9118;DHT22;4594;50.994;7.126;2022-08-03T04:35:01;20.70;38.20
9118;DHT22;4594;50.994;7.126;2022-08-03T04:40:13;20.70;38.30
9118;DHT22;4594;50.994;7.126;2022-08-03T04:42:44;20.70;38.30
9118;DHT22;4594;50.994;7.126;2022-08-03T04:45:12;20.80;38.30
9118;DHT22;4594;50.994;7.126;2022-08-03T04:47:40;20.80;38.40
9118;DHT22;4594;50.994;7.126;2022-08-03T04:50:07;20.80;38.40
9118;DHT22;4594;50.994;7.126;2022-08-03T04:52:34;20.80;38.40
9118;DHT22;4594;50.994;7.126;2022-08-03T04:55:00;20.80;38.40
9118;DHT22;4594;50.994;7.126;2022-08-03T04:57:26;20.90;38.50
9118;DHT22;4594;50.994;7.126;2022-08-03T04:59:52;20.80;38.40
9118;DHT22;4594;50.994;7.126;2022-08-03T05:02:19;20.90;38.50
9118;DHT22;4594;50.994;7.126;2022-08-03T05:04:45;21.00;38.70
9118;DHT22;4594;50.994;7.126;2022-08-03T05:07:12;21.00;38.70
9118;DHT22;4594;50.994;7.126;2022-08-03T05:09:39;21.00;38.70
9118;DHT22;4594;50.994;7.126;2022-08-03T05:12:05;21.10;39.10
9118;DHT22;4594;50.994;7.126;2022-08-03T05:14:32;21.10;38.80
9118;DHT22;4594;50.994;7.126;2022-08-03T05:17:00;21.20;38.90
9118;DHT22;4594;50.994;7.126;2022-08-03T05:19:26;21.20;38.90
9118;DHT22;4594;50.994;7.126;2022-08-03T05:21:51;21.20;38.90
9118;DHT22;4594;50.994;7.126;2022-08-03T05:24:17;21.30;39.10
9118;DHT22;4594;50.994;7.126;2022-08-03T05:26:42;21.40;39.20
9118;DHT22;4594;50.994;7.126;2022-08-03T05:29:08;21.50;39.70
9118;DHT22;4594;50.994;7.126;2022-08-03T05:31:34;21.70;39.70
9118;DHT22;4594;50.994;7.126;2022-08-03T05:33:59;21.80;40.00
9118;DHT22;4594;50.994;7.126;2022-08-03T05:36:25;22.00;40.30
9118;DHT22;4594;50.994;7.126;2022-08-03T05:38:51;22.30;40.50
9118;DHT22;4594;50.994;7.126;2022-08-03T05:41:17;22.60;40.80
9118;DHT22;4594;50.994;7.126;2022-08-03T05:43:43;23.00;41.00
9118;DHT22;4594;50.994;7.126;2022-08-03T05:46:09;23.30;41.10
9118;DHT22;4594;50.994;7.126;2022-08-03T05:48:35;23.70;41.00
9118;DHT22;4594;50.994;7.126;2022-08-03T05:51:00;24.10;41.00
9118;DHT22;4594;50.994;7.126;2022-08-03T05:53:26;24.50;41.10
9118;DHT22;4594;50.994;7.126;2022-08-03T05:55:54;24.90;41.00
9118;DHT22;4594;50.994;7.126;2022-08-03T05:58:20;25.40;40.90
9118;DHT22;4594;50.994;7.126;2022-08-03T06:00:46;25.80;40.60
9118;DHT22;4594;50.994;7.126;2022-08-03T06:03:11;26.20;40.30
9118;DHT22;4594;50.994;7.126;2022-08-03T06:05:37;26.60;40.20
9118;DHT22;4594;50.994;7.126;2022-08-03T06:08:03;26.90;39.90
9118;DHT22;4594;50.994;7.126;2022-08-03T06:10:29;27.30;39.80
9118;DHT22;4594;50.994;7.126;2022-08-03T06:12:55;27.60;39.60
9118;DHT22;4594;50.994;7.126;2022-08-03T06:15:21;27.90;39.50
9118;DHT22;4594;50.994;7.126;2022-08-03T06:17:48;28.20;39.40
9118;DHT22;4594;50.994;7.126;2022-08-03T06:20:18;28.60;39.40
9118;DHT22;4594;50.994;7.126;2022-08-03T06:22:47;28.90;39.20
9118;DHT22;4594;50.994;7.126;2022-08-03T06:25:13;29.30;39.40
9118;DHT22;4594;50.994;7.126;2022-08-03T06:27:41;29.80;39.50
9118;DHT22;4594;50.994;7.126;2022-08-03T06:30:09;30.20;39.30
9118;DHT22;4594;50.994;7.126;2022-08-03T06:32:37;30.60;39.10
9118;DHT22;4594;50.994;7.126;2022-08-03T06:35:04;31.00;38.90
9118;DHT22;4594;50.994;7.126;2022-08-03T06:37:44;31.50;38.80
9118;DHT22;4594;50.994;7.126;2022-08-03T06:40:12;32.00;38.00
9118;DHT22;4594;50.994;7.126;2022-08-03T06:42:40;32.40;38.20
9118;DHT22;4594;50.994;7.126;2022-08-03T06:45:07;32.80;38.10
9118;DHT22;4594;50.994;7.126;2022-08-03T06:47:37;33.20;37.90
9118;DHT22;4594;50.994;7.126;2022-08-03T06:50:05;33.60;37.70
9118;DHT22;4594;50.994;7.126;2022-08-03T06:52:32;33.90;37.20
9118;DHT22;4594;50.994;7.126;2022-08-03T06:54:58;34.30;37.10
9118;DHT22;4594;50.994;7.126;2022-08-03T06:57:24;34.70;36.90
9118;DHT22;4594;50.994;7.126;2022-08-03T06:59:49;35.00;36.40
9118;DHT22;4594;50.994;7.126;2022-08-03T07:02:15;35.20;36.00
9118;DHT22;4594;50.994;7.126;2022-08-03T07:04:43;35.40;35.90
9118;DHT22;4594;50.994;7.126;2022-08-03T07:07:09;35.70;35.60
9118;DHT22;4594;50.994;7.126;2022-08-03T07:09:35;35.90;35.50
9118;DHT22;4594;50.994;7.126;2022-08-03T07:12:01;36.00;35.60
9118;DHT22;4594;50.994;7.126;2022-08-03T07:14:28;36.20;35.40
9118;DHT22;4594;50.994;7.126;2022-08-03T07:16:54;36.40;35.20
9118;DHT22;4594;50.994;7.126;2022-08-03T07:19:19;36.60;35.00
9118;DHT22;4594;50.994;7.126;2022-08-03T07:21:45;36.80;35.00
9118;DHT22;4594;50.994;7.126;2022-08-03T07:24:11;37.00;34.80
9118;DHT22;4594;50.994;7.126;2022-08-03T07:26:37;37.20;34.60
9118;DHT22;4594;50.994;7.126;2022-08-03T07:29:03;37.40;34.70
9118;DHT22;4594;50.994;7.126;2022-08-03T07:31:28;37.70;34.60
9118;DHT22;4594;50.994;7.126;2022-08-03T07:33:54;37.90;34.50
9118;DHT22;4594;50.994;7.126;2022-08-03T07:36:21;38.10;34.40
9118;DHT22;4594;50.994;7.126;2022-08-03T07:38:49;38.50;34.40
9118;DHT22;4594;50.994;7.126;2022-08-03T07:41:15;38.80;34.20
9118;DHT22;4594;50.994;7.126;2022-08-03T07:43:40;39.10;33.90
9118;DHT22;4594;50.994;7.126;2022-08-03T07:46:06;39.40;33.80
9118;DHT22;4594;50.994;7.126;2022-08-03T07:48:32;39.80;33.90
9118;DHT22;4594;50.994;7.126;2022-08-03T07:50:57;40.00;33.60
9118;DHT22;4594;50.994;7.126;2022-08-03T07:53:23;40.30;33.40
9118;DHT22;4594;50.994;7.126;2022-08-03T07:55:49;40.60;33.40
9118;DHT22;4594;50.994;7.126;2022-08-03T07:58:14;40.80;33.10
9118;DHT22;4594;50.994;7.126;2022-08-03T08:00:42;41.10;33.10
9118;DHT22;4594;50.994;7.126;2022-08-03T08:03:09;41.30;32.90
9118;DHT22;4594;50.994;7.126;2022-08-03T08:05:35;41.60;32.80
9118;DHT22;4594;50.994;7.126;2022-08-03T08:08:02;41.90;32.90
9118;DHT22;4594;50.994;7.126;2022-08-03T08:10:29;42.20;32.80
9118;DHT22;4594;50.994;7.126;2022-08-03T08:12:55;42.50;32.70
9118;DHT22;4594;50.994;7.126;2022-08-03T08:15:21;42.90;32.50
9118;DHT22;4594;50.994;7.126;2022-08-03T08:17:53;43.10;32.30
9118;DHT22;4594;50.994;7.126;2022-08-03T08:20:21;43.40;31.60
9118;DHT22;4594;50.994;7.126;2022-08-03T08:22:56;43.70;32.00
9118;DHT22;4594;50.994;7.126;2022-08-03T08:25:23;43.90;31.90
9118;DHT22;4594;50.994;7.126;2022-08-03T08:27:49;44.10;31.80
9118;DHT22;4594;50.994;7.126;2022-08-03T08:30:18;44.40;31.80
9118;DHT22;4594;50.994;7.126;2022-08-03T08:32:46;44.60;31.50
9118;DHT22;4594;50.994;7.126;2022-08-03T08:35:13;44.90;31.50
9118;DHT22;4594;50.994;7.126;2022-08-03T08:37:39;45.10;31.20
9118;DHT22;4594;50.994;7.126;2022-08-03T08:40:06;45.40;31.20
9118;DHT22;4594;50.994;7.126;2022-08-03T08:42:33;45.50;30.80
9118;DHT22;4594;50.994;7.126;2022-08-03T08:45:03;45.70;30.60
9118;DHT22;4594;50.994;7.126;2022-08-03T08:47:31;45.60;30.30
9118;DHT22;4594;50.994;7.126;2022-08-03T08:49:59;45.70;30.40
9118;DHT22;4594;50.994;7.126;2022-08-03T08:52:29;45.70;30.30
9118;DHT22;4594;50.994;7.126;2022-08-03T08:55:02;45.80;30.10
9118;DHT22;4594;50.994;7.126;2022-08-03T08:57:40;45.80;30.00
9118;DHT22;4594;50.994;7.126;2022-08-03T09:00:11;46.00;30.10
9118;DHT22;4594;50.994;7.126;2022-08-03T09:02:38;46.10;30.10
9118;DHT22;4594;50.994;7.126;2022-08-03T09:05:09;46.10;30.00
9118;DHT22;4594;50.994;7.126;2022-08-03T09:07:37;46.20;29.90
9118;DHT22;4594;50.994;7.126;2022-08-03T09:10:06;46.30;29.90
9118;DHT22;4594;50.994;7.126;2022-08-03T09:12:37;46.30;29.80
9118;DHT22;4594;50.994;7.126;2022-08-03T09:15:24;46.40;29.60
9118;DHT22;4594;50.994;7.126;2022-08-03T09:17:54;46.40;29.60
9118;DHT22;4594;50.994;7.126;2022-08-03T09:20:22;46.60;29.70
9118;DHT22;4594;50.994;7.126;2022-08-03T09:22:58;46.70;29.60
9118;DHT22;4594;50.994;7.126;2022-08-03T09:25:33;46.70;29.40
9118;DHT22;4594;50.994;7.126;2022-08-03T09:28:12;46.90;29.60
9118;DHT22;4594;50.994;7.126;2022-08-03T09:30:42;47.00;29.40
9118;DHT22;4594;50.994;7.126;2022-08-03T09:33:11;47.10;29.50
9118;DHT22;4594;50.994;7.126;2022-08-03T09:35:45;47.30;29.50
9118;DHT22;4594;50.994;7.126;2022-08-03T09:38:18;47.40;29.40
9118;DHT22;4594;50.994;7.126;2022-08-03T09:40:49;47.70;29.30
9118;DHT22;4594;50.994;7.126;2022-08-03T09:43:15;47.80;29.40
9118;DHT22;4594;50.994;7.126;2022-08-03T09:45:42;48.00;29.40
9118;DHT22;4594;50.994;7.126;2022-08-03T09:48:28;48.20;29.40
9118;DHT22;4594;50.994;7.126;2022-08-03T09:51:00;48.40;29.30
9118;DHT22;4594;50.994;7.126;2022-08-03T09:53:28;48.50;29.20
9118;DHT22;4594;50.994;7.126;2022-08-03T09:55:59;48.70;29.20
9118;DHT22;4594;50.994;7.126;2022-08-03T09:58:30;48.90;29.10
9118;DHT22;4594;50.994;7.126;2022-08-03T10:01:04;49.00;29.00
9118;DHT22;4594;50.994;7.126;2022-08-03T10:03:33;49.10;28.90
9118;DHT22;4594;50.994;7.126;2022-08-03T10:06:14;49.20;29.00
9118;DHT22;4594;50.994;7.126;2022-08-03T10:08:44;49.30;28.90
9118;DHT22;4594;50.994;7.126;2022-08-03T10:11:10;49.40;29.00
9118;DHT22;4594;50.994;7.126;2022-08-03T10:13:37;49.50;28.90
9118;DHT22;4594;50.994;7.126;2022-08-03T10:16:04;49.50;29.10
9118;DHT22;4594;50.994;7.126;2022-08-03T10:18:31;49.50;28.70
9118;DHT22;4594;50.994;7.126;2022-08-03T10:21:03;49.60;28.70
9118;DHT22;4594;50.994;7.126;2022-08-03T10:23:37;49.60;28.60
9118;DHT22;4594;50.994;7.126;2022-08-03T10:26:06;49.70;28.40
9118;DHT22;4594;50.994;7.126;2022-08-03T10:28:40;49.70;28.50
9118;DHT22;4594;50.994;7.126;2022-08-03T10:31:12;49.70;28.40
9118;DHT22;4594;50.994;7.126;2022-08-03T10:33:43;49.70;28.40
9118;DHT22;4594;50.994;7.126;2022-08-03T10:36:13;49.70;28.30
9118;DHT22;4594;50.994;7.126;2022-08-03T10:38:47;49.70;28.40
9118;DHT22;4594;50.994;7.126;2022-08-03T10:41:22;49.70;28.40
9118;DHT22;4594;50.994;7.126;2022-08-03T10:44:02;49.60;28.20
9118;DHT22;4594;50.994;7.126;2022-08-03T10:46:33;49.60;28.10
9118;DHT22;4594;50.994;7.126;2022-08-03T10:49:01;49.50;28.10
9118;DHT22;4594;50.994;7.126;2022-08-03T10:51:28;49.50;28.10
9118;DHT22;4594;50.994;7.126;2022-08-03T10:53:57;49.50;28.00
9118;DHT22;4594;50.994;7.126;2022-08-03T10:59:18;49.40;27.90
9118;DHT22;4594;50.994;7.126;2022-08-03T11:01:55;49.30;27.90
9118;DHT22;4594;50.994;7.126;2022-08-03T11:04:23;49.30;27.70
9118;DHT22;4594;50.994;7.126;2022-08-03T11:09:43;49.00;27.80
9118;DHT22;4594;50.994;7.126;2022-08-03T11:12:24;48.90;27.80
9118;DHT22;4594;50.994;7.126;2022-08-03T11:14:52;48.80;27.70
9118;DHT22;4594;50.994;7.126;2022-08-03T11:17:19;48.70;27.80
9118;DHT22;4594;50.994;7.126;2022-08-03T11:19:47;48.60;27.70
9118;DHT22;4594;50.994;7.126;2022-08-03T11:22:18;48.40;27.70
9118;DHT22;4594;50.994;7.126;2022-08-03T11:27:15;48.20;27.70
9118;DHT22;4594;50.994;7.126;2022-08-03T11:40:50;47.50;27.60
9118;DHT22;4594;50.994;7.126;2022-08-03T11:45:58;47.20;27.50
9118;DHT22;4594;50.994;7.126;2022-08-03T11:48:36;46.90;27.40
9118;DHT22;4594;50.994;7.126;2022-08-03T11:51:07;46.60;27.20
9118;DHT22;4594;50.994;7.126;2022-08-03T11:53:43;46.20;27.00
9118;DHT22;4594;50.994;7.126;2022-08-03T11:56:12;45.80;27.00
9118;DHT22;4594;50.994;7.126;2022-08-03T11:58:52;45.40;27.00
9118;DHT22;4594;50.994;7.126;2022-08-03T12:01:21;44.90;27.00
9118;DHT22;4594;50.994;7.126;2022-08-03T12:03:48;44.40;26.90
9118;DHT22;4594;50.994;7.126;2022-08-03T12:06:15;43.90;26.90
9118;DHT22;4594;50.994;7.126;2022-08-03T12:08:43;43.50;26.90
9118;DHT22;4594;50.994;7.126;2022-08-03T12:11:11;43.10;27.00
9118;DHT22;4594;50.994;7.126;2022-08-03T12:13:42;42.70;27.00
9118;DHT22;4594;50.994;7.126;2022-08-03T12:16:23;42.40;27.00
9118;DHT22;4594;50.994;7.126;2022-08-03T12:18:57;42.00;27.10
9118;DHT22;4594;50.994;7.126;2022-08-03T12:21:24;41.70;27.00
9118;DHT22;4594;50.994;7.126;2022-08-03T12:23:55;41.40;27.00
9118;DHT22;4594;50.994;7.126;2022-08-03T12:26:23;41.10;27.00
9118;DHT22;4594;50.994;7.126;2022-08-03T12:28:48;40.80;27.10
9118;DHT22;4594;50.994;7.126;2022-08-03T12:31:14;40.50;27.10
9118;DHT22;4594;50.994;7.126;2022-08-03T12:33:58;40.20;27.10
9118;DHT22;4594;50.994;7.126;2022-08-03T12:36:31;39.90;27.20
9118;DHT22;4594;50.994;7.126;2022-08-03T12:39:07;39.70;27.10
9118;DHT22;4594;50.994;7.126;2022-08-03T12:41:36;39.40;27.20
9118;DHT22;4594;50.994;7.126;2022-08-03T12:44:04;39.10;27.10
9118;DHT22;4594;50.994;7.126;2022-08-03T12:46:36;38.90;27.10
9118;DHT22;4594;50.994;7.126;2022-08-03T12:49:12;38.60;27.20
9118;DHT22;4594;50.994;7.126;2022-08-03T12:54:19;38.20;27.30
9118;DHT22;4594;50.994;7.126;2022-08-03T12:57:04;38.10;27.40
9118;DHT22;4594;50.994;7.126;2022-08-03T12:59:33;37.80;27.50
9118;DHT22;4594;50.994;7.126;2022-08-03T13:02:00;37.70;27.40
9118;DHT22;4594;50.994;7.126;2022-08-03T13:04:34;37.60;27.50
9118;DHT22;4594;50.994;7.126;2022-08-03T13:07:05;37.40;27.50
9118;DHT22;4594;50.994;7.126;2022-08-03T13:09:55;37.30;27.60
9118;DHT22;4594;50.994;7.126;2022-08-03T13:12:23;37.20;27.60
9118;DHT22;4594;50.994;7.126;2022-08-03T13:14:55;37.10;27.60
9118;DHT22;4594;50.994;7.126;2022-08-03T13:17:24;37.00;27.60
9118;DHT22;4594;50.994;7.126;2022-08-03T13:19:50;36.90;27.60
9118;DHT22;4594;50.994;7.126;2022-08-03T13:22:20;36.80;27.70
9118;DHT22;4594;50.994;7.126;2022-08-03T13:24:48;36.80;27.80
9118;DHT22;4594;50.994;7.126;2022-08-03T13:27:15;36.70;27.80
9118;DHT22;4594;50.994;7.126;2022-08-03T13:29:42;36.60;27.70
9118;DHT22;4594;50.994;7.126;2022-08-03T13:32:08;36.60;27.90
9118;DHT22;4594;50.994;7.126;2022-08-03T13:34:35;36.50;28.00
9118;DHT22;4594;50.994;7.126;2022-08-03T13:37:01;36.40;27.90
9118;DHT22;4594;50.994;7.126;2022-08-03T13:39:27;36.40;28.00
9118;DHT22;4594;50.994;7.126;2022-08-03T13:41:53;36.30;28.00
9118;DHT22;4594;50.994;7.126;2022-08-03T13:44:19;36.30;28.00
9118;DHT22;4594;50.994;7.126;2022-08-03T13:46:45;36.30;28.10
9118;DHT22;4594;50.994;7.126;2022-08-03T13:49:11;36.20;28.10
9118;DHT22;4594;50.994;7.126;2022-08-03T13:51:37;36.20;28.20
9118;DHT22;4594;50.994;7.126;2022-08-03T13:54:03;36.20;28.20
9118;DHT22;4594;50.994;7.126;2022-08-03T13:56:30;36.10;28.20
9118;DHT22;4594;50.994;7.126;2022-08-03T13:58:56;36.10;28.20
9118;DHT22;4594;50.994;7.126;2022-08-03T14:01:22;36.00;28.10
9118;DHT22;4594;50.994;7.126;2022-08-03T14:03:49;36.00;28.10
9118;DHT22;4594;50.994;7.126;2022-08-03T14:06:22;36.00;28.20
9118;DHT22;4594;50.994;7.126;2022-08-03T14:08:48;35.90;28.20
9118;DHT22;4594;50.994;7.126;2022-08-03T14:11:15;35.80;28.10
9118;DHT22;4594;50.994;7.126;2022-08-03T14:13:42;35.80;28.10
9118;DHT22;4594;50.994;7.126;2022-08-03T14:16:07;35.70;28.20
9118;DHT22;4594;50.994;7.126;2022-08-03T14:18:34;35.60;28.20
9118;DHT22;4594;50.994;7.126;2022-08-03T14:21:01;35.50;28.20
9118;DHT22;4594;50.994;7.126;2022-08-03T14:23:28;35.40;28.20
9118;DHT22;4594;50.994;7.126;2022-08-03T14:25:54;35.40;28.20
9118;DHT22;4594;50.994;7.126;2022-08-03T14:28:21;35.30;28.30
9118;DHT22;4594;50.994;7.126;2022-08-03T14:30:48;35.20;28.30
9118;DHT22;4594;50.994;7.126;2022-08-03T14:33:15;35.20;28.40
9118;DHT22;4594;50.994;7.126;2022-08-03T14:35:41;35.20;28.50
9118;DHT22;4594;50.994;7.126;2022-08-03T14:38:06;35.10;28.40
9118;DHT22;4594;50.994;7.126;2022-08-03T14:40:32;35.10;28.40
9118;DHT22;4594;50.994;7.126;2022-08-03T14:42:58;35.10;28.40
9118;DHT22;4594;50.994;7.126;2022-08-03T14:45:23;35.10;28.40
9118;DHT22;4594;50.994;7.126;2022-08-03T14:47:49;35.10;28.40
9118;DHT22;4594;50.994;7.126;2022-08-03T14:50:16;35.10;28.50
9118;DHT22;4594;50.994;7.126;2022-08-03T14:52:42;35.10;28.50
9118;DHT22;4594;50.994;7.126;2022-08-03T14:55:08;35.10;28.50
9118;DHT22;4594;50.994;7.126;2022-08-03T14:57:34;35.00;28.50
9118;DHT22;4594;50.994;7.126;2022-08-03T14:59:59;35.00;28.50
9118;DHT22;4594;50.994;7.126;2022-08-03T15:02:25;35.00;28.50
9118;DHT22;4594;50.994;7.126;2022-08-03T15:04:52;34.90;28.50
9118;DHT22;4594;50.994;7.126;2022-08-03T15:07:18;34.90;28.50
9118;DHT22;4594;50.994;7.126;2022-08-03T15:09:44;34.90;28.60
9118;DHT22;4594;50.994;7.126;2022-08-03T15:12:10;34.90;28.60
9118;DHT22;4594;50.994;7.126;2022-08-03T15:14:36;34.80;28.60
9118;DHT22;4594;50.994;7.126;2022-08-03T15:17:02;34.80;28.60
9118;DHT22;4594;50.994;7.126;2022-08-03T15:19:27;34.80;28.60
9118;DHT22;4594;50.994;7.126;2022-08-03T15:21:53;34.80;28.60
9118;DHT22;4594;50.994;7.126;2022-08-03T15:24:19;34.80;28.60
9118;DHT22;4594;50.994;7.126;2022-08-03T15:26:45;34.70;28.60
9118;DHT22;4594;50.994;7.126;2022-08-03T15:29:10;34.70;28.60
9118;DHT22;4594;50.994;7.126;2022-08-03T15:31:38;34.60;28.60
9118;DHT22;4594;50.994;7.126;2022-08-03T15:34:04;34.60;28.60
9118;DHT22;4594;50.994;7.126;2022-08-03T15:36:31;34.60;28.70
9118;DHT22;4594;50.994;7.126;2022-08-03T15:38:57;34.60;28.70
9118;DHT22;4594;50.994;7.126;2022-08-03T15:41:23;34.50;28.70
9118;DHT22;4594;50.994;7.126;2022-08-03T15:43:48;34.50;28.70
9118;DHT22;4594;50.994;7.126;2022-08-03T15:46:17;34.50;28.70
9118;DHT22;4594;50.994;7.126;2022-08-03T15:48:43;34.50;28.80
9118;DHT22;4594;50.994;7.126;2022-08-03T15:51:10;34.50;28.80
9118;DHT22;4594;50.994;7.126;2022-08-03T15:53:36;34.50;28.90
9118;DHT22;4594;50.994;7.126;2022-08-03T15:56:03;34.40;28.80
9118;DHT22;4594;50.994;7.126;2022-08-03T15:58:29;34.40;28.80
9118;DHT22;4594;50.994;7.126;2022-08-03T16:00:59;34.40;28.90
9118;DHT22;4594;50.994;7.126;2022-08-03T16:03:26;34.40;28.90
9118;DHT22;4594;50.994;7.126;2022-08-03T16:05:53;34.30;28.90
9118;DHT22;4594;50.994;7.126;2022-08-03T16:08:19;34.30;28.80
9118;DHT22;4594;50.994;7.126;2022-08-03T16:10:46;34.30;28.90
9118;DHT22;4594;50.994;7.126;2022-08-03T16:13:12;34.20;28.80
9118;DHT22;4594;50.994;7.126;2022-08-03T16:15:38;34.20;28.80
9118;DHT22;4594;50.994;7.126;2022-08-03T16:18:05;34.10;28.80
9118;DHT22;4594;50.994;7.126;2022-08-03T16:20:31;34.10;28.90
9118;DHT22;4594;50.994;7.126;2022-08-03T16:22:56;34.00;28.80
9118;DHT22;4594;50.994;7.126;2022-08-03T16:25:22;34.00;28.90
9118;DHT22;4594;50.994;7.126;2022-08-03T16:27:48;34.00;28.90
9118;DHT22;4594;50.994;7.126;2022-08-03T16:30:14;33.90;28.90
9118;DHT22;4594;50.994;7.126;2022-08-03T16:32:42;33.90;29.00
9118;DHT22;4594;50.994;7.126;2022-08-03T16:35:08;33.80;29.00
9118;DHT22;4594;50.994;7.126;2022-08-03T16:37:35;33.70;29.00
9118;DHT22;4594;50.994;7.126;2022-08-03T16:40:02;33.70;29.00
9118;DHT22;4594;50.994;7.126;2022-08-03T16:42:29;33.60;29.00
9118;DHT22;4594;50.994;7.126;2022-08-03T16:44:55;33.60;29.10